sensor_id;sensor_type;location;lat;lon;timestamp;pressure;altitude;pressure_sealevel;temperature;humidity
18821;BME280;9539;59.332;18.034;2022-12-18T00:02:03;101823.72;;;-0.28;100.00
18821;BME280;9539;59.332;18.034;2022-12-18T00:04:30;101822.84;;;-0.34;100.00
18821;BME280;9539;59.332;18.034;2022-12-18T00:06:57;101831.53;;;-0.22;100.00
18821;BME280;9539;59.332;18.034;2022-12-18T00:09:24;101825.44;;;-0.25;100.00
18821;BME280;9539;59.332;18.034;2022-12-18T00:11:50;101820.22;;;-0.18;100.00
18821;BME280;9539;59.332;18.034;2022-12-18T00:14:18;101820.25;;;-0.07;100.00
18821;BME280;9539;59.332;18.034;2022-12-18T00:16:46;101820.22;;;-0.12;100.00
18821;BME280;9539;59.332;18.034;2022-12-18T00:19:13;101829.78;;;0.02;100.00
18821;BME280;9539;59.332;18.034;2022-12-18T00:21:41;101831.53;;;-0.13;100.00
18821;BME280;9539;59.332;18.034;2022-12-18T00:24:09;101825.44;;;-0.22;100.00
18821;BME280;9539;59.332;18.034;2022-12-18T00:26:37;101828.06;;;-0.13;100.00
18821;BME280;9539;59.332;18.034;2022-12-18T00:29:06;101830.69;;;-0.07;100.00
18821;BME280;9539;59.332;18.034;2022-12-18T00:31:34;101832.41;;;-0.08;100.00
18821;BME280;9539;59.332;18.034;2022-12-18T00:34:02;101818.50;;;-0.16;100.00
18821;BME280;9539;59.332;18.034;2022-12-18T00:36:30;101825.44;;;-0.19;100.00
18821;BME280;9539;59.332;18.034;2022-12-18T00:38:58;101826.31;;;-0.04;100.00
18821;BME280;9539;59.332;18.034;2022-12-18T00:41:26;101823.72;;;-0.11;100.00
18821;BME280;9539;59.332;18.034;2022-12-18T00:44:13;101815.88;;;-0.10;100.00
18821;BME280;9539;59.332;18.034;2022-12-18T00:46:41;101808.94;;;-0.20;100.00
18821;BME280;9539;59.332;18.034;2022-12-18T00:49:09;101809.78;;;0.04;100.00
18821;BME280;9539;59.332;18.034;2022-12-18T00:51:36;101802.84;;;0.10;100.00
18821;BME280;9539;59.332;18.034;2022-12-18T00:54:02;101799.34;;;-0.04;100.00
18821;BME280;9539;59.332;18.034;2022-12-18T00:56:30;101812.41;;;-0.12;100.00
18821;BME280;9539;59.332;18.034;2022-12-18T00:58:57;101800.22;;;-0.04;100.00
18821;BME280;9539;59.332;18.034;2022-12-18T01:01:24;101810.66;;;-0.13;100.00
18821;BME280;9539;59.332;18.034;2022-12-18T01:03:52;101815.91;;;-0.07;100.00
18821;BME280;9539;59.332;18.034;2022-12-18T01:06:18;101806.34;;;0.00;100.00
18821;BME280;9539;59.332;18.034;2022-12-18T01:08:45;101814.16;;;-0.11;100.00
18821;BME280;9539;59.332;18.034;2022-12-18T01:11:14;101810.66;;;-0.17;100.00
18821;BME280;9539;59.332;18.034;2022-12-18T01:13:42;101807.19;;;-0.18;100.00
18821;BME280;9539;59.332;18.034;2022-12-18T01:16:10;101813.28;;;-0.10;100.00
18821;BME280;9539;59.332;18.034;2022-12-18T01:18:37;101814.16;;;-0.20;100.00
18821;BME280;9539;59.332;18.034;2022-12-18T01:21:08;101822.84;;;-0.16;100.00
18821;BME280;9539;59.332;18.034;2022-12-18T01:23:35;101830.69;;;-0.07;100.00
18821;BME280;9539;59.332;18.034;2022-12-18T01:26:05;101829.81;;;-0.14;100.00
18821;BME280;9539;59.332;18.034;2022-12-18T01:28:32;101830.66;;;-0.18;100.00
18821;BME280;9539;59.332;18.034;2022-12-18T01:31:10;101833.25;;;-0.19;100.00
18821;BME280;9539;59.332;18.034;2022-12-18T01:33:37;101833.28;;;-0.01;100.00
18821;BME280;9539;59.332;18.034;2022-12-18T01:36:04;101826.34;;;0.06;100.00
18821;BME280;9539;59.332;18.034;2022-12-18T01:38:33;101826.31;;;0.10;100.00
18821;BME280;9539;59.332;18.034;2022-12-18T01:41:00;101815.91;;;0.06;100.00
18821;BME280;9539;59.332;18.034;2022-12-18T01:43:49;101805.44;;;0.12;100.00
18821;BME280;9539;59.332;18.034;2022-12-18T01:46:17;101808.94;;;0.12;100.00
18821;BME280;9539;59.332;18.034;2022-12-18T01:48:45;101806.31;;;0.15;100.00
18821;BME280;9539;59.332;18.034;2022-12-18T01:51:13;101791.50;;;0.07;100.00
18821;BME280;9539;59.332;18.034;2022-12-18T01:53:42;101798.47;;;0.09;100.00
18821;BME280;9539;59.332;18.034;2022-12-18T01:56:12;101795.00;;;0.18;100.00
18821;BME280;9539;59.332;18.034;2022-12-18T01:58:46;101784.59;;;-0.07;100.00
18821;BME280;9539;59.332;18.034;2022-12-18T02:01:15;101792.41;;;0.04;100.00
18821;BME280;9539;59.332;18.034;2022-12-18T02:03:42;101797.63;;;0.10;100.00
18821;BME280;9539;59.332;18.034;2022-12-18T02:06:13;101803.69;;;0.17;100.00
18821;BME280;9539;59.332;18.034;2022-12-18T02:08:49;101801.97;;;0.10;100.00
18821;BME280;9539;59.332;18.034;2022-12-18T02:11:23;101801.97;;;0.11;100.00
18821;BME280;9539;59.332;18.034;2022-12-18T02:14:00;101794.13;;;0.11;100.00
18821;BME280;9539;59.332;18.034;2022-12-18T02:16:36;101794.13;;;0.10;100.00
18821;BME280;9539;59.332;18.034;2022-12-18T02:19:11;101796.72;;;0.07;100.00
18821;BME280;9539;59.332;18.034;2022-12-18T02:21:48;101791.53;;;0.00;100.00
18821;BME280;9539;59.332;18.034;2022-12-18T02:24:29;101787.19;;;-0.02;100.00
18821;BME280;9539;59.332;18.034;2022-12-18T02:27:03;101778.50;;;-0.10;100.00
18821;BME280;9539;59.332;18.034;2022-12-18T02:29:35;101792.41;;;0.04;100.00
18821;BME280;9539;59.332;18.034;2022-12-18T02:32:06;101786.31;;;-0.04;100.00
18821;BME280;9539;59.332;18.034;2022-12-18T02:34:37;101788.94;;;0.05;100.00
18821;BME280;9539;59.332;18.034;2022-12-18T02:37:10;101791.53;;;0.13;100.00
18821;BME280;9539;59.332;18.034;2022-12-18T02:39:40;101791.50;;;0.07;100.00
18821;BME280;9539;59.332;18.034;2022-12-18T02:42:10;101781.97;;;0.10;100.00
18821;BME280;9539;59.332;18.034;2022-12-18T02:44:42;101782.81;;;0.15;100.00
18821;BME280;9539;59.332;18.034;2022-12-18T02:47:10;101773.25;;;0.19;100.00
18821;BME280;9539;59.332;18.034;2022-12-18T02:49:45;101778.47;;;0.08;100.00
18821;BME280;9539;59.332;18.034;2022-12-18T02:52:19;101775.84;;;0.08;100.00
18821;BME280;9539;59.332;18.034;2022-12-18T02:54:56;101761.94;;;0.15;100.00
18821;BME280;9539;59.332;18.034;2022-12-18T02:57:33;101765.41;;;0.16;100.00
18821;BME280;9539;59.332;18.034;2022-12-18T03:00:05;101764.56;;;0.12;100.00
18821;BME280;9539;59.332;18.034;2022-12-18T03:02:37;101761.94;;;0.14;100.00
18821;BME280;9539;59.332;18.034;2022-12-18T03:05:10;101777.59;;;0.08;100.00
18821;BME280;9539;59.332;18.034;2022-12-18T03:07:42;101767.19;;;0.06;100.00
18821;BME280;9539;59.332;18.034;2022-12-18T03:10:14;101774.97;;;0.15;100.00
18821;BME280;9539;59.332;18.034;2022-12-18T03:12:48;101776.72;;;0.16;100.00
18821;BME280;9539;59.332;18.034;2022-12-18T03:15:20;101762.78;;;0.22;100.00
18821;BME280;9539;59.332;18.034;2022-12-18T03:17:54;101766.28;;;0.22;100.00
18821;BME280;9539;59.332;18.034;2022-12-18T03:20:24;101759.31;;;0.15;100.00
18821;BME280;9539;59.332;18.034;2022-12-18T03:22:59;101752.34;;;0.23;100.00
18821;BME280;9539;59.332;18.034;2022-12-18T03:25:30;101760.22;;;0.11;100.00
18821;BME280;9539;59.332;18.034;2022-12-18T03:28:01;101756.72;;;0.11;100.00
18821;BME280;9539;59.332;18.034;2022-12-18T03:30:31;101761.09;;;0.12;100.00
18821;BME280;9539;59.332;18.034;2022-12-18T03:33:05;101757.59;;;0.11;100.00
18821;BME280;9539;59.332;18.034;2022-12-18T03:35:37;101762.84;;;0.05;100.00
18821;BME280;9539;59.332;18.034;2022-12-18T03:38:05;101762.81;;;0.08;100.00
18821;BME280;9539;59.332;18.034;2022-12-18T03:40:43;101760.19;;;0.19;100.00
18821;BME280;9539;59.332;18.034;2022-12-18T03:43:18;101757.59;;;0.10;100.00
18821;BME280;9539;59.332;18.034;2022-12-18T03:45:51;101760.22;;;0.04;100.00
18821;BME280;9539;59.332;18.034;2022-12-18T03:48:25;101759.38;;;-0.02;100.00
18821;BME280;9539;59.332;18.034;2022-12-18T03:50:56;101761.97;;;0.00;100.00
18821;BME280;9539;59.332;18.034;2022-12-18T03:53:29;101750.69;;;-0.20;100.00
18821;BME280;9539;59.332;18.034;2022-12-18T03:56:00;101745.47;;;-0.20;100.00
18821;BME280;9539;59.332;18.034;2022-12-18T03:58:31;101734.13;;;-0.06;100.00
18821;BME280;9539;59.332;18.034;2022-12-18T04:01:02;101742.84;;;-0.16;100.00
18821;BME280;9539;59.332;18.034;2022-12-18T04:03:31;101741.09;;;-0.06;100.00
18821;BME280;9539;59.332;18.034;2022-12-18T04:05:59;101738.50;;;-0.17;100.00
18821;BME280;9539;59.332;18.034;2022-12-18T04:08:27;101748.06;;;-0.19;100.00
18821;BME280;9539;59.332;18.034;2022-12-18T04:10:55;101748.06;;;-0.10;100.00
18821;BME280;9539;59.332;18.034;2022-12-18T04:13:22;101748.06;;;-0.17;100.00
18821;BME280;9539;59.332;18.034;2022-12-18T04:15:50;101754.13;;;-0.05;100.00
18821;BME280;9539;59.332;18.034;2022-12-18T04:18:17;101755.88;;;-0.05;100.00
18821;BME280;9539;59.332;18.034;2022-12-18T04:20:44;101753.28;;;-0.01;100.00
18821;BME280;9539;59.332;18.034;2022-12-18T04:23:11;101758.50;;;-0.14;100.00
18821;BME280;9539;59.332;18.034;2022-12-18T04:25:38;101759.38;;;-0.17;100.00
18821;BME280;9539;59.332;18.034;2022-12-18T04:28:05;101763.69;;;-0.05;100.00
18821;BME280;9539;59.332;18.034;2022-12-18T04:30:32;101764.59;;;-0.08;100.00
18821;BME280;9539;59.332;18.034;2022-12-18T04:33:00;101765.44;;;-0.10;100.00
18821;BME280;9539;59.332;18.034;2022-12-18T04:35:27;101761.09;;;-0.16;100.00
18821;BME280;9539;59.332;18.034;2022-12-18T04:37:54;101758.50;;;-0.17;100.00
18821;BME280;9539;59.332;18.034;2022-12-18T04:40:21;101756.75;;;-0.17;100.00
18821;BME280;9539;59.332;18.034;2022-12-18T04:42:47;101751.53;;;-0.12;100.00
18821;BME280;9539;59.332;18.034;2022-12-18T04:45:14;101762.84;;;-0.10;100.00
18821;BME280;9539;59.332;18.034;2022-12-18T04:47:41;101757.63;;;-0.10;100.00
18821;BME280;9539;59.332;18.034;2022-12-18T04:50:09;101757.63;;;-0.19;100.00
18821;BME280;9539;59.332;18.034;2022-12-18T04:52:36;101751.56;;;-0.23;100.00
18821;BME280;9539;59.332;18.034;2022-12-18T04:55:03;101743.72;;;-0.24;100.00
18821;BME280;9539;59.332;18.034;2022-12-18T04:57:30;101734.16;;;-0.18;100.00
18821;BME280;9539;59.332;18.034;2022-12-18T04:59:57;101728.06;;;-0.14;100.00
18821;BME280;9539;59.332;18.034;2022-12-18T05:02:24;101717.63;;;-0.15;100.00
18821;BME280;9539;59.332;18.034;2022-12-18T05:04:50;101720.25;;;-0.23;100.00
18821;BME280;9539;59.332;18.034;2022-12-18T05:07:18;101716.78;;;-0.16;100.00
18821;BME280;9539;59.332;18.034;2022-12-18T05:09:45;101709.78;;;-0.11;100.00
18821;BME280;9539;59.332;18.034;2022-12-18T05:12:12;101718.50;;;-0.16;100.00
18821;BME280;9539;59.332;18.034;2022-12-18T05:14:39;101715.03;;;-0.08;100.00
18821;BME280;9539;59.332;18.034;2022-12-18T05:17:05;101699.38;;;-0.17;100.00
18821;BME280;9539;59.332;18.034;2022-12-18T05:19:32;101707.19;;;-0.15;100.00
18821;BME280;9539;59.332;18.034;2022-12-18T05:21:59;101702.84;;;-0.16;100.00
18821;BME280;9539;59.332;18.034;2022-12-18T05:24:28;101703.72;;;-0.14;100.00
18821;BME280;9539;59.332;18.034;2022-12-18T05:26:54;101696.75;;;-0.18;100.00
18821;BME280;9539;59.332;18.034;2022-12-18T05:29:21;101688.06;;;-0.16;100.00
18821;BME280;9539;59.332;18.034;2022-12-18T05:31:48;101697.63;;;-0.10;100.00
18821;BME280;9539;59.332;18.034;2022-12-18T05:34:15;101688.06;;;-0.07;100.00
18821;BME280;9539;59.332;18.034;2022-12-18T05:36:42;101689.78;;;-0.03;100.00
18821;BME280;9539;59.332;18.034;2022-12-18T05:39:09;101697.63;;;-0.12;100.00
18821;BME280;9539;59.332;18.034;2022-12-18T05:41:37;101684.56;;;-0.01;100.00
18821;BME280;9539;59.332;18.034;2022-12-18T05:44:04;101689.78;;;-0.01;100.00
18821;BME280;9539;59.332;18.034;2022-12-18T05:46:34;101668.06;;;-0.17;100.00
18821;BME280;9539;59.332;18.034;2022-12-18T05:49:01;101692.41;;;-0.10;100.00
18821;BME280;9539;59.332;18.034;2022-12-18T05:51:28;101695.84;;;0.01;100.00
18821;BME280;9539;59.332;18.034;2022-12-18T05:53:55;101685.44;;;-0.05;100.00
18821;BME280;9539;59.332;18.034;2022-12-18T05:56:22;101688.06;;;-0.01;100.00
18821;BME280;9539;59.332;18.034;2022-12-18T05:58:53;101675.84;;;0.12;100.00
18821;BME280;9539;59.332;18.034;2022-12-18T06:01:22;101677.53;;;0.13;100.00
18821;BME280;9539;59.332;18.034;2022-12-18T06:03:49;101674.13;;;0.05;100.00
18821;BME280;9539;59.332;18.034;2022-12-18T06:06:18;101678.44;;;0.11;100.00
18821;BME280;9539;59.332;18.034;2022-12-18T06:08:45;101680.16;;;0.16;100.00
18821;BME280;9539;59.332;18.034;2022-12-18T06:11:13;101673.22;;;0.08;100.00
18821;BME280;9539;59.332;18.034;2022-12-18T06:13:40;101672.34;;;0.12;100.00
18821;BME280;9539;59.332;18.034;2022-12-18T06:16:08;101673.22;;;0.11;100.00
18821;BME280;9539;59.332;18.034;2022-12-18T06:18:35;101667.97;;;0.18;100.00
18821;BME280;9539;59.332;18.034;2022-12-18T06:21:02;101666.28;;;0.13;100.00
18821;BME280;9539;59.332;18.034;2022-12-18T06:23:28;101675.81;;;0.14;100.00
18821;BME280;9539;59.332;18.034;2022-12-18T06:25:56;101678.41;;;0.23;100.00
18821;BME280;9539;59.332;18.034;2022-12-18T06:28:22;101675.75;;;0.27;100.00
18821;BME280;9539;59.332;18.034;2022-12-18T06:30:50;101665.38;;;0.18;100.00
18821;BME280;9539;59.332;18.034;2022-12-18T06:33:19;101665.41;;;0.12;100.00
18821;BME280;9539;59.332;18.034;2022-12-18T06:35:46;101661.03;;;0.16;100.00
18821;BME280;9539;59.332;18.034;2022-12-18T06:38:13;101657.56;;;0.08;100.00
18821;BME280;9539;59.332;18.034;2022-12-18T06:40:40;101659.22;;;0.27;100.00
18821;BME280;9539;59.332;18.034;2022-12-18T06:43:06;101661.88;;;0.13;100.00
18821;BME280;9539;59.332;18.034;2022-12-18T06:45:33;101660.13;;;0.24;100.00
18821;BME280;9539;59.332;18.034;2022-12-18T06:48:00;101641.88;;;0.17;100.00
18821;BME280;9539;59.332;18.034;2022-12-18T06:50:28;101654.91;;;0.24;100.00
18821;BME280;9539;59.332;18.034;2022-12-18T06:52:55;101663.59;;;0.23;100.00
18821;BME280;9539;59.332;18.034;2022-12-18T06:55:22;101662.75;;;0.14;100.00
18821;BME280;9539;59.332;18.034;2022-12-18T06:57:49;101671.47;;;0.19;100.00
18821;BME280;9539;59.332;18.034;2022-12-18T07:00:16;101667.94;;;0.27;100.00
18821;BME280;9539;59.332;18.034;2022-12-18T07:02:42;101660.09;;;0.27;100.00
18821;BME280;9539;59.332;18.034;2022-12-18T07:05:09;101660.94;;;0.35;100.00
18821;BME280;9539;59.332;18.034;2022-12-18T07:07:38;101663.59;;;0.32;100.00
18821;BME280;9539;59.332;18.034;2022-12-18T07:10:05;101664.44;;;0.30;100.00
18821;BME280;9539;59.332;18.034;2022-12-18T07:12:32;101661.78;;;0.44;100.00
18821;BME280;9539;59.332;18.034;2022-12-18T07:14:58;101676.56;;;0.49;100.00
18821;BME280;9539;59.332;18.034;2022-12-18T07:17:25;101674.84;;;0.45;100.00
18821;BME280;9539;59.332;18.034;2022-12-18T07:19:52;101677.44;;;0.45;100.00
18821;BME280;9539;59.332;18.034;2022-12-18T07:22:19;101673.88;;;0.63;100.00
18821;BME280;9539;59.332;18.034;2022-12-18T07:24:47;101680.03;;;0.51;100.00
18821;BME280;9539;59.332;18.034;2022-12-18T07:27:13;101673.00;;;0.61;100.00
18821;BME280;9539;59.332;18.034;2022-12-18T07:29:40;101671.25;;;0.63;100.00
18821;BME280;9539;59.332;18.034;2022-12-18T07:32:07;101670.31;;;0.71;100.00
18821;BME280;9539;59.332;18.034;2022-12-18T07:34:34;101662.47;;;0.74;100.00
18821;BME280;9539;59.332;18.034;2022-12-18T07:37:01;101668.56;;;0.75;100.00
18821;BME280;9539;59.332;18.034;2022-12-18T07:39:28;101652.91;;;0.76;100.00
18821;BME280;9539;59.332;18.034;2022-12-18T07:41:56;101658.97;;;0.82;100.00
18821;BME280;9539;59.332;18.034;2022-12-18T07:44:42;101663.22;;;0.93;100.00
18821;BME280;9539;59.332;18.034;2022-12-18T07:47:09;101658.91;;;0.86;100.00
18821;BME280;9539;59.332;18.034;2022-12-18T07:49:36;101657.19;;;0.90;100.00
18821;BME280;9539;59.332;18.034;2022-12-18T07:52:03;101669.38;;;0.91;100.00
18821;BME280;9539;59.332;18.034;2022-12-18T07:54:30;101667.66;;;0.84;100.00
18821;BME280;9539;59.332;18.034;2022-12-18T07:56:59;101676.25;;;1.01;100.00
18821;BME280;9539;59.332;18.034;2022-12-18T07:59:26;101673.63;;;1.02;100.00
18821;BME280;9539;59.332;18.034;2022-12-18T08:01:53;101673.59;;;1.05;100.00
18821;BME280;9539;59.332;18.034;2022-12-18T08:04:19;101666.56;;;1.12;100.00
18821;BME280;9539;59.332;18.034;2022-12-18T08:06:46;101677.97;;;1.05;100.00
18821;BME280;9539;59.332;18.034;2022-12-18T08:09:13;101678.88;;;1.01;100.00
18821;BME280;9539;59.332;18.034;2022-12-18T08:11:40;101676.22;;;1.07;100.00
18821;BME280;9539;59.332;18.034;2022-12-18T08:14:08;101671.03;;;1.01;100.00
18821;BME280;9539;59.332;18.034;2022-12-18T08:16:35;101657.91;;;1.05;100.00
18821;BME280;9539;59.332;18.034;2022-12-18T08:19:02;101649.19;;;1.08;100.00
18821;BME280;9539;59.332;18.034;2022-12-18T08:21:30;101652.69;;;1.10;100.00
18821;BME280;9539;59.332;18.034;2022-12-18T08:23:59;101639.56;;;1.13;100.00
18821;BME280;9539;59.332;18.034;2022-12-18T08:26:27;101638.69;;;1.15;100.00
18821;BME280;9539;59.332;18.034;2022-12-18T08:28:55;101639.47;;;1.25;100.00
18821;BME280;9539;59.332;18.034;2022-12-18T08:31:24;101629.88;;;1.27;100.00
18821;BME280;9539;59.332;18.034;2022-12-18T08:33:52;101633.34;;;1.29;100.00
18821;BME280;9539;59.332;18.034;2022-12-18T08:36:19;101641.09;;;1.40;100.00
18821;BME280;9539;59.332;18.034;2022-12-18T08:38:46;101627.31;;;1.19;100.00
18821;BME280;9539;59.332;18.034;2022-12-18T08:41:15;101648.13;;;1.35;100.00
18821;BME280;9539;59.332;18.034;2022-12-18T08:43:42;101651.59;;;1.35;100.00
18821;BME280;9539;59.332;18.034;2022-12-18T08:46:32;101663.69;;;1.45;100.00
18821;BME280;9539;59.332;18.034;2022-12-18T08:49:00;101661.97;;;1.43;100.00
18821;BME280;9539;59.332;18.034;2022-12-18T08:51:27;101654.16;;;1.40;100.00
18821;BME280;9539;59.332;18.034;2022-12-18T08:53:53;101648.00;;;1.45;100.00
18821;BME280;9539;59.332;18.034;2022-12-18T08:56:20;101645.44;;;1.41;100.00
18821;BME280;9539;59.332;18.034;2022-12-18T08:58:47;101642.72;;;1.50;100.00
18821;BME280;9539;59.332;18.034;2022-12-18T09:01:17;101637.53;;;1.45;100.00
18821;BME280;9539;59.332;18.034;2022-12-18T09:03:48;101640.91;;;1.59;100.00
18821;BME280;9539;59.332;18.034;2022-12-18T09:06:16;101647.88;;;1.57;100.00
18821;BME280;9539;59.332;18.034;2022-12-18T09:08:43;101647.06;;;1.55;100.00
18821;BME280;9539;59.332;18.034;2022-12-18T09:11:13;101650.44;;;1.64;100.00
18821;BME280;9539;59.332;18.034;2022-12-18T09:13:40;101653.94;;;1.66;100.00
18821;BME280;9539;59.332;18.034;2022-12-18T09:16:07;101652.97;;;1.73;100.00
18821;BME280;9539;59.332;18.034;2022-12-18T09:18:34;101646.00;;;1.75;100.00
18821;BME280;9539;59.332;18.034;2022-12-18T09:21:09;101647.69;;;1.79;100.00
18821;BME280;9539;59.332;18.034;2022-12-18T09:23:36;101650.25;;;1.83;100.00
18821;BME280;9539;59.332;18.034;2022-12-18T09:26:03;101653.66;;;1.93;100.00
18821;BME280;9539;59.332;18.034;2022-12-18T09:28:29;101638.75;;;1.96;100.00
18821;BME280;9539;59.332;18.034;2022-12-18T09:30:56;101644.72;;;2.09;100.00
18821;BME280;9539;59.332;18.034;2022-12-18T09:33:23;101633.44;;;2.07;100.00
18821;BME280;9539;59.332;18.034;2022-12-18T09:35:50;101622.94;;;2.07;100.00
18821;BME280;9539;59.332;18.034;2022-12-18T09:38:19;101610.69;;;2.09;100.00
18821;BME280;9539;59.332;18.034;2022-12-18T09:40:48;101607.91;;;2.21;100.00
18821;BME280;9539;59.332;18.034;2022-12-18T09:43:19;101608.69;;;2.28;100.00
18821;BME280;9539;59.332;18.034;2022-12-18T09:45:49;101584.34;;;2.23;100.00
18821;BME280;9539;59.332;18.034;2022-12-18T09:48:21;101586.00;;;2.28;100.00
18821;BME280;9539;59.332;18.034;2022-12-18T09:50:50;101587.75;;;2.28;100.00
18821;BME280;9539;59.332;18.034;2022-12-18T09:53:24;101589.41;;;2.33;100.00
18821;BME280;9539;59.332;18.034;2022-12-18T09:55:54;101578.03;;;2.39;100.00
18821;BME280;9539;59.332;18.034;2022-12-18T09:58:30;101567.59;;;2.34;100.00
18821;BME280;9539;59.332;18.034;2022-12-18T10:00:58;101567.63;;;2.33;100.00
18821;BME280;9539;59.332;18.034;2022-12-18T10:03:25;101580.56;;;2.42;100.00
18821;BME280;9539;59.332;18.034;2022-12-18T10:06:01;101585.03;;;2.37;100.00
18821;BME280;9539;59.332;18.034;2022-12-18T10:08:35;101580.50;;;2.48;100.00
18821;BME280;9539;59.332;18.034;2022-12-18T10:11:21;101550.00;;;2.46;100.00
18821;BME280;9539;59.332;18.034;2022-12-18T10:13:53;101567.28;;;2.57;100.00
18821;BME280;9539;59.332;18.034;2022-12-18T10:16:29;101552.53;;;2.49;100.00
18821;BME280;9539;59.332;18.034;2022-12-18T10:19:08;101558.47;;;2.61;100.00
18821;BME280;9539;59.332;18.034;2022-12-18T10:21:43;101549.84;;;2.53;100.00
18821;BME280;9539;59.332;18.034;2022-12-18T10:24:23;101530.53;;;2.60;100.00
18821;BME280;9539;59.332;18.034;2022-12-18T10:27:08;101556.72;;;2.62;100.00
18821;BME280;9539;59.332;18.034;2022-12-18T10:29:37;101561.00;;;2.67;100.00
18821;BME280;9539;59.332;18.034;2022-12-18T10:32:04;101547.84;;;2.72;100.00
18821;BME280;9539;59.332;18.034;2022-12-18T10:34:31;101547.22;;;2.53;100.00
18821;BME280;9539;59.332;18.034;2022-12-18T10:37:00;101565.53;;;2.55;100.00
18821;BME280;9539;59.332;18.034;2022-12-18T10:39:32;101560.28;;;2.58;100.00
18821;BME280;9539;59.332;18.034;2022-12-18T10:42:10;101555.84;;;2.60;100.00
18821;BME280;9539;59.332;18.034;2022-12-18T10:44:38;101559.34;;;2.62;100.00
18821;BME280;9539;59.332;18.034;2022-12-18T10:47:11;101572.41;;;2.63;100.00
18821;BME280;9539;59.332;18.034;2022-12-18T10:49:47;101561.94;;;2.63;100.00
18821;BME280;9539;59.332;18.034;2022-12-18T10:52:18;101554.09;;;2.62;100.00
18821;BME280;9539;59.332;18.034;2022-12-18T10:54:49;101551.56;;;2.57;100.00
18821;BME280;9539;59.332;18.034;2022-12-18T10:57:33;101566.31;;;2.61;100.00
18821;BME280;9539;59.332;18.034;2022-12-18T11:00:23;101566.19;;;2.70;100.00
18821;BME280;9539;59.332;18.034;2022-12-18T11:02:50;101567.84;;;2.76;100.00
18821;BME280;9539;59.332;18.034;2022-12-18T11:05:26;101566.25;;;2.66;100.00
18821;BME280;9539;59.332;18.034;2022-12-18T11:07:54;101547.09;;;2.64;100.00
18821;BME280;9539;59.332;18.034;2022-12-18T11:10:26;101562.75;;;2.67;100.00
18821;BME280;9539;59.332;18.034;2022-12-18T11:12:54;101561.00;;;2.66;100.00
18821;BME280;9539;59.332;18.034;2022-12-18T11:15:25;101559.34;;;2.62;100.00
18821;BME280;9539;59.332;18.034;2022-12-18T11:17:53;101560.06;;;2.71;100.00
18821;BME280;9539;59.332;18.034;2022-12-18T11:20:27;101547.00;;;2.68;100.00
18821;BME280;9539;59.332;18.034;2022-12-18T11:22:58;101565.44;;;2.62;100.00
18821;BME280;9539;59.332;18.034;2022-12-18T11:25:27;101564.44;;;2.71;100.00
18821;BME280;9539;59.332;18.034;2022-12-18T11:27:56;101559.22;;;2.68;100.00
18821;BME280;9539;59.332;18.034;2022-12-18T11:30:25;101549.72;;;2.64;100.00
18821;BME280;9539;59.332;18.034;2022-12-18T11:32:55;101543.50;;;2.68;100.00
18821;BME280;9539;59.332;18.034;2022-12-18T11:35:35;101549.72;;;2.61;100.00
18821;BME280;9539;59.332;18.034;2022-12-18T11:38:10;101541.00;;;2.60;100.00
18821;BME280;9539;59.332;18.034;2022-12-18T11:40:44;101527.97;;;2.57;100.00
18821;BME280;9539;59.332;18.034;2022-12-18T11:43:15;101527.84;;;2.65;100.00
18821;BME280;9539;59.332;18.034;2022-12-18T11:45:48;101555.72;;;2.69;100.00
18821;BME280;9539;59.332;18.034;2022-12-18T11:48:20;101554.84;;;2.70;100.00
18821;BME280;9539;59.332;18.034;2022-12-18T11:50:51;101552.13;;;2.77;100.00
18821;BME280;9539;59.332;18.034;2022-12-18T11:53:18;101542.75;;;2.61;100.00
18821;BME280;9539;59.332;18.034;2022-12-18T11:56:01;101552.41;;;2.58;100.00
18821;BME280;9539;59.332;18.034;2022-12-18T11:58:43;101545.25;;;2.69;100.00
18821;BME280;9539;59.332;18.034;2022-12-18T12:01:17;101544.44;;;2.65;100.00
18821;BME280;9539;59.332;18.034;2022-12-18T12:04:04;101540.81;;;2.72;100.00
18821;BME280;9539;59.332;18.034;2022-12-18T12:06:40;101540.69;;;2.81;100.00
18821;BME280;9539;59.332;18.034;2022-12-18T12:09:17;101544.91;;;2.90;100.00
18821;BME280;9539;59.332;18.034;2022-12-18T12:11:54;101534.47;;;2.86;100.00
18821;BME280;9539;59.332;18.034;2022-12-18T12:14:38;101553.88;;;2.77;100.00
18821;BME280;9539;59.332;18.034;2022-12-18T12:17:13;101545.28;;;2.66;100.00
18821;BME280;9539;59.332;18.034;2022-12-18T12:19:49;101548.56;;;2.80;100.00
18821;BME280;9539;59.332;18.034;2022-12-18T12:22:24;101543.41;;;2.74;100.00
18821;BME280;9539;59.332;18.034;2022-12-18T12:25:04;101551.28;;;2.74;100.00
18821;BME280;9539;59.332;18.034;2022-12-18T12:27:41;101561.66;;;2.81;100.00
18821;BME280;9539;59.332;18.034;2022-12-18T12:30:16;101560.00;;;2.76;100.00
18821;BME280;9539;59.332;18.034;2022-12-18T12:33:03;101561.72;;;2.77;100.00
18821;BME280;9539;59.332;18.034;2022-12-18T12:35:42;101577.25;;;2.91;100.00
18821;BME280;9539;59.332;18.034;2022-12-18T12:38:13;101569.53;;;2.80;100.00
18821;BME280;9539;59.332;18.034;2022-12-18T12:40:46;101562.38;;;2.91;100.00
18821;BME280;9539;59.332;18.034;2022-12-18T12:43:26;101559.75;;;2.91;100.00
18821;BME280;9539;59.332;18.034;2022-12-18T12:45:55;101546.66;;;2.90;100.00
18821;BME280;9539;59.332;18.034;2022-12-18T12:48:33;101554.44;;;2.96;100.00
18821;BME280;9539;59.332;18.034;2022-12-18T12:51:02;101557.94;;;2.95;100.00
18821;BME280;9539;59.332;18.034;2022-12-18T12:53:34;101566.53;;;3.04;100.00
18821;BME280;9539;59.332;18.034;2022-12-18T12:56:03;101556.03;;;3.04;100.00
18821;BME280;9539;59.332;18.034;2022-12-18T12:58:38;101565.47;;;3.14;100.00
18821;BME280;9539;59.332;18.034;2022-12-18T13:01:17;101568.09;;;3.13;100.00
18821;BME280;9539;59.332;18.034;2022-12-18T13:03:57;101568.81;;;3.22;100.00